This is the latest recevied weather packets stored in our database for station/object WX5RP. If no packets are shown the sender has not sent any weather packets the latest 10 day(s).
| Time | Temp. | Humidity | Pressure | Rain* | Wind** | Luminosity | Snow |
|---|---|---|---|---|---|---|---|
| 1777652716 | 17.22° C | 28% | 1019.7 hPa | 0 mm | - | 620 W/m² | - |
| 1777652117 | 16.67° C | 28% | 1019.7 hPa | 0 mm | - | 587 W/m² | - |
| 1777651516 | 16.11° C | 33% | 1019.1 hPa | 0 mm | - | 531 W/m² | - |
| 1777650916 | 15.56° C | 36% | 1019.5 hPa | 0 mm | - | 495 W/m² | - |
| 1777650316 | 14.44° C | 40% | 1019.5 hPa | 0 mm | - | 439 W/m² | - |
| 1777649716 | 13.89° C | 38% | 1020 hPa | 0 mm | - | 416 W/m² | - |
| 1777649116 | 12.78° C | 40% | 1020.3 hPa | 0 mm | - | 377 W/m² | - |
| 1777648516 | 12.22° C | 42% | 1020.6 hPa | 0 mm | - | 305 W/m² | - |
| 1777647916 | 11.67° C | 43% | 1019.5 hPa | 0 mm | - | 324 W/m² | - |
| 1777647316 | 11.11° C | 43% | 1020 hPa | 0 mm | - | 342 W/m² | - |
| 1777646717 | 10° C | 46% | 1019.7 hPa | 0 mm | - | 338 W/m² | - |
| 1777646116 | 8.33° C | 51% | 1019.9 hPa | 0 mm | - | 295 W/m² | - |
| 1777645516 | 6.67° C | 54% | 1020.2 hPa | 0 mm | - | 252 W/m² | - |
| 1777644916 | 5° C | 59% | 1020.2 hPa | 0 mm | - | 191 W/m² | - |
| 1777644316 | 4.44° C | 62% | 1019.3 hPa | 0 mm | - | 147 W/m² | - |
| 1777643716 | 3.33° C | 65% | 1019.6 hPa | 0 mm | - | 124 W/m² | - |
| 1777643116 | 2.22° C | 68% | 1019.3 hPa | 0 mm | - | 96 W/m² | - |
| 1777642518 | 1.67° C | 69% | 1019.5 hPa | 0 mm | - | 65 W/m² | - |
| 1777641916 | 1.11° C | 70% | 1019.4 hPa | 0 mm | - | 40 W/m² | - |
| 1777641315 | 1.11° C | 70% | 1019.4 hPa | 0 mm | - | 21 W/m² | - |
| 1777640715 | 0.56° C | 71% | 1019.1 hPa | 0 mm | - | 12 W/m² | - |
| 1777640116 | 0° C | 72% | 1018.9 hPa | 0 mm | - | 5 W/m² | - |
| 1777639515 | 0° C | 72% | 1019.2 hPa | 0 mm | - | 0 W/m² | - |
| 1777638915 | 0° C | 72% | 1019.1 hPa | 0 mm | - | 0 W/m² | - |
| 1777638315 | 0.56° C | 71% | 1019.1 hPa | 0 mm | - | 0 W/m² | - |
* Rain latest hour (hover to see other rain measurements)
** Current wind speed in m/s (hover to see current wind gust speed)